Terminal Aerodrome Forecast
Issued by NWS

Home | Current Version | Previous Version | Text Only | Print | Product List | Glossary Off
Versions: 1 2 3 4 5 6 7 8 9 10 11 12 13 14 15 16

000
FTUS43 KABR 222320
TAFMBG
TAF
KMBG 222320Z 2300/2324 33015G25KT P6SM SKC
     FM230400 35008KT P6SM SKC
     FM232200 05006KT P6SM SKC=

USA.gov is the U.S. government's official web portal to all federal, state and local government web resources and services.